Time;durP1;ratioP1;P1;durP2;ratioP2;P2;SDS_P1;SDS_P2;PMS_P1;PMS_P2;Temp;Humidity;BMP_temperature;BMP_pressure;BME280_temperature;BME280_humidity;BME280_pressure;Samples;Min_cycle;Max_cycle;Signal;HPM_P1;HPM_P2
2022/01/02 00:01:15;;;;;;;7.95;3.65;;;13.10;99.90;;;;;;4999390;28;20079;-86
2022/01/02 00:03:41;;;;;;;7.38;3.47;;;13.10;99.90;;;;;;5000466;28;20026;-86
2022/01/02 00:06:08;;;;;;;7.10;3.13;;;13.20;99.90;;;;;;5013385;28;20034;-86
2022/01/02 00:08:48;;;;;;;6.60;3.50;;;13.20;99.90;;;;;;5014680;28;20044;-84
2022/01/02 00:11:32;;;;;;;8.67;3.30;;;13.20;99.90;;;;;;5035695;28;20113;-85
2022/01/02 00:14:08;;;;;;;6.28;3.33;;;13.30;99.90;;;;;;5032075;28;20174;-86
2022/01/02 00:17:48;;;;;;;8.05;3.50;;;13.30;99.90;;;;;;4950042;29;20059;-86
2022/01/02 00:30:01;;;;;;;;;;;13.20;99.90;;;;;;4936302;29;20083;-86
2022/01/02 00:35:59;;;;;;;8.20;3.53;;;13.20;99.90;;;;;;4935814;29;20102;-85
2022/01/02 00:38:24;;;;;;;8.48;3.90;;;13.20;99.90;;;;;;4919209;29;20238;-85
2022/01/02 00:40:54;;;;;;;7.93;3.30;;;13.20;99.90;;;;;;4935855;29;20470;-85
2022/01/02 01:07:35;;;;;;;7.13;3.05;;;13.10;99.90;;;;;;4935791;29;20128;-85
2022/01/02 01:38:33;;;;;;;10.35;4.10;;;12.90;99.90;;;;;;5014069;28;20133;-84
2022/01/02 01:51:23;;;;;;;9.05;4.15;;;12.80;99.90;;;;;;5014277;28;20022;-85
2022/01/02 01:57:59;;;;;;;8.27;3.78;;;12.70;99.90;;;;;;5013706;28;20021;-85
2022/01/02 02:07:26;;;;;;;12.45;3.67;;;12.70;99.90;;;;;;5014155;28;20038;-85
2022/01/02 02:23:25;;;;;;;10.85;3.72;;;12.70;99.90;;;;;;4995576;28;20034;-84
2022/01/02 02:29:40;;;;;;;11.07;3.80;;;12.70;99.90;;;;;;4996053;28;20168;-84
2022/01/02 02:38:53;;;;;;;10.68;3.78;;;12.70;99.90;;;;;;4992574;28;20032;-84
2022/01/02 02:52:40;;;;;;;10.90;3.20;;;12.80;99.90;;;;;;5016562;28;20018;-85
2022/01/02 03:01:59;;;;;;;15.55;3.97;;;13.00;99.90;;;;;;4993662;28;19922;-85
2022/01/02 03:08:29;;;;;;;10.32;2.95;;;13.10;99.90;;;;;;4995188;28;20493;-85
2022/01/02 03:18:14;;;;;;;12.32;3.80;;;13.20;99.90;;;;;;4972883;28;20062;-85
2022/01/02 03:24:21;;;;;;;14.48;2.90;;;13.30;99.90;;;;;;4974046;28;20602;-84
2022/01/02 03:26:47;;;;;;;13.25;3.05;;;13.30;99.90;;;;;;4986328;28;20457;-84
2022/01/02 03:29:13;;;;;;;10.07;3.55;;;13.30;99.90;;;;;;4999382;28;20038;-85
2022/01/02 03:32:03;;;;;;;10.25;3.22;;;13.30;99.90;;;;;;4998639;28;20092;-85
2022/01/02 03:37:55;;;;;;;10.90;2.83;;;13.30;99.90;;;;;;5016218;28;20489;-84
2022/01/02 03:40:21;;;;;;;12.88;3.35;;;13.30;99.90;;;;;;4998597;28;20044;-85
2022/01/02 03:42:46;;;;;;;10.82;3.72;;;13.40;99.90;;;;;;5016106;28;20525;-84
2022/01/02 03:45:13;;;;;;;14.90;3.60;;;13.40;99.90;;;;;;4998375;28;20066;-85
2022/01/02 03:47:46;;;;;;;10.27;3.60;;;13.40;99.90;;;;;;5009239;28;20054;-85
2022/01/02 03:50:11;;;;;;;10.48;2.60;;;13.40;99.90;;;;;;5027126;28;20061;-84
2022/01/02 03:52:37;;;;;;;12.55;4.00;;;13.50;99.90;;;;;;5019194;28;20034;-85
2022/01/02 03:58:34;;;;;;;12.90;3.78;;;13.50;99.90;;;;;;5037452;28;20037;-84
2022/01/02 04:07:49;;;;;;;8.55;2.72;;;13.60;99.90;;;;;;5016177;28;20037;-84
2022/01/02 04:17:39;;;;;;;11.40;3.30;;;13.60;99.90;;;;;;5015120;28;20056;-84
2022/01/02 04:20:06;;;;;;;9.88;2.65;;;13.60;99.90;;;;;;4994654;28;20513;-84
2022/01/02 04:22:32;;;;;;;10.57;2.25;;;13.70;99.90;;;;;;4978568;28;20054;-84
2022/01/02 04:28:37;;;;;;;11.65;2.75;;;13.70;99.90;;;;;;4996844;28;20027;-84
2022/01/02 04:34:25;;;;;;;8.70;2.95;;;13.60;99.90;;;;;;4995449;28;20080;-85
2022/01/02 04:40:13;;;;;;;13.73;2.78;;;13.70;99.90;;;;;;4995356;28;20077;-84
2022/01/02 04:42:39;;;;;;;10.32;3.25;;;13.60;99.90;;;;;;4977629;28;20542;-84
2022/01/02 04:45:07;;;;;;;8.52;3.25;;;13.60;99.90;;;;;;4977581;28;20233;-84
2022/01/02 04:47:35;;;;;;;13.80;3.55;;;13.60;99.90;;;;;;4977674;28;20084;-87
2022/01/02 04:53:30;;;;;;;15.52;3.25;;;13.50;99.90;;;;;;4994981;28;20041;-84
2022/01/02 04:55:55;;;;;;;11.82;3.17;;;13.40;99.90;;;;;;4977029;28;20026;-84
2022/01/02 04:58:21;;;;;;;10.68;3.05;;;13.40;99.90;;;;;;4977474;28;20455;-84
2022/01/02 05:00:47;;;;;;;11.02;3.53;;;13.30;99.90;;;;;;4977389;28;20034;-86
2022/01/02 05:03:12;;;;;;;6.47;2.83;;;13.30;99.90;;;;;;4977785;28;20030;-85
2022/01/02 05:05:38;;;;;;;11.77;3.20;;;13.30;99.90;;;;;;4977133;28;20026;-85
2022/01/02 05:26:11;;;;;;;7.88;3.25;;;13.10;99.90;;;;;;4994443;28;20073;-84
2022/01/02 05:32:34;;;;;;;12.05;3.70;;;13.00;99.90;;;;;;4994625;28;20049;-85
2022/01/02 05:48:55;;;;;;;13.65;3.53;;;12.90;99.90;;;;;;4994031;28;20386;-86
2022/01/02 05:54:54;;;;;;;8.00;3.10;;;12.80;99.90;;;;;;4994465;28;20037;-86
2022/01/02 06:00:55;;;;;;;10.85;2.95;;;12.70;99.90;;;;;;4994333;28;20498;-85
2022/01/02 06:06:53;;;;;;;13.82;3.90;;;12.70;99.90;;;;;;4994444;28;20037;-86
2022/01/02 06:12:59;;;;;;;9.82;3.83;;;12.70;99.90;;;;;;4994454;28;20025;-86
2022/01/02 06:18:47;;;;;;;10.63;3.60;;;12.70;99.90;;;;;;4995048;28;20022;-87
2022/01/02 06:21:13;;;;;;;10.32;3.25;;;12.70;99.90;;;;;;4996117;28;20026;-87
2022/01/02 06:23:38;;;;;;;8.07;2.90;;;12.60;99.90;;;;;;5013429;28;20033;-87
2022/01/02 06:26:04;;;;;;;8.30;3.33;;;12.60;99.90;;;;;;4995989;28;20515;-86
2022/01/02 06:28:29;;;;;;;9.13;2.75;;;12.60;99.90;;;;;;5012696;28;20030;-86
2022/01/02 06:30:55;;;;;;;8.18;3.15;;;12.60;99.90;;;;;;4996122;28;20049;-85
2022/01/02 06:33:21;;;;;;;11.40;3.38;;;12.60;99.90;;;;;;5013832;28;20022;-86
2022/01/02 06:35:49;;;;;;;10.57;3.22;;;12.60;99.90;;;;;;4996419;28;20036;-86
2022/01/02 06:41:52;;;;;;;11.02;3.38;;;12.50;99.90;;;;;;5013744;28;20041;-86
2022/01/02 06:47:50;;;;;;;10.02;3.20;;;12.50;99.90;;;;;;5014275;28;20029;-86
2022/01/02 06:50:16;;;;;;;10.40;3.17;;;12.50;99.90;;;;;;5013182;28;20034;-86
2022/01/02 06:52:42;;;;;;;9.52;3.22;;;12.50;99.90;;;;;;5013360;28;20462;-86
2022/01/02 06:55:18;;;;;;;9.10;3.17;;;12.40;99.90;;;;;;4996540;28;20029;-86
2022/01/02 06:57:43;;;;;;;8.63;3.05;;;12.40;99.90;;;;;;4995875;28;20044;-86
2022/01/02 07:00:09;;;;;;;6.78;3.30;;;12.40;99.90;;;;;;4997678;28;20038;-85
2022/01/02 07:06:04;;;;;;;13.65;3.47;;;12.40;99.90;;;;;;5017246;28;20104;-85
2022/01/02 07:08:30;;;;;;;10.23;3.17;;;12.40;99.90;;;;;;5016630;28;20065;-85
2022/01/02 07:10:56;;;;;;;7.40;3.00;;;12.40;99.90;;;;;;5015365;28;20060;-86
2022/01/02 07:13:25;;;;;;;9.18;3.03;;;12.40;99.90;;;;;;4999998;28;20033;-85
2022/01/02 07:27:05;;;;;;;9.05;3.50;;;12.50;99.90;;;;;;5004344;28;20029;-86
2022/01/02 07:33:20;;;;;;;7.88;3.17;;;12.50;99.90;;;;;;5020888;28;20061;-85
2022/01/02 07:35:46;;;;;;;10.15;3.40;;;12.50;99.90;;;;;;5020040;28;20042;-85
2022/01/02 07:38:11;;;;;;;7.65;3.10;;;12.50;99.90;;;;;;5000939;28;20025;-85
2022/01/02 07:48:14;;;;;;;9.00;3.20;;;12.50;99.90;;;;;;4996536;28;20494;-83
2022/01/02 08:38:13;;;;;;;10.05;3.28;;;12.40;99.90;;;;;;5015255;28;20064;-84
2022/01/02 08:44:31;;;;;;;10.88;2.70;;;12.50;99.90;;;;;;5014967;28;20057;-84
2022/01/02 08:54:06;;;;;;;5.53;2.35;;;12.50;99.90;;;;;;5017286;28;20030;-85
2022/01/02 09:03:21;;;;;;;5.88;2.42;;;12.60;99.90;;;;;;5015477;28;20088;-85
2022/01/02 09:09:09;;;;;;;6.97;2.88;;;12.60;99.90;;;;;;5015013;28;20049;-84
2022/01/02 09:18:27;;;;;;;7.72;2.65;;;12.60;99.90;;;;;;5014288;28;20038;-84
2022/01/02 09:27:44;;;;;;;9.35;2.70;;;12.60;99.90;;;;;;5014606;28;20034;-84
2022/01/02 09:34:07;;;;;;;4.88;2.50;;;12.60;99.90;;;;;;5013151;28;20501;-85
2022/01/02 09:36:33;;;;;;;;;;;12.70;99.90;;;;;;4996581;28;20052;-84
2022/01/02 09:38:58;;;;;;;8.82;2.90;;;12.70;99.90;;;;;;4996932;28;19906;-83
2022/01/02 09:41:24;;;;;;;7.65;3.08;;;12.70;99.90;;;;;;5012670;28;20080;-84
2022/01/02 09:43:53;;;;;;;5.55;2.58;;;12.70;99.90;;;;;;4997383;28;20046;-85
2022/01/02 09:46:30;;;;;;;6.38;3.05;;;12.80;99.90;;;;;;5012650;28;20109;-85
2022/01/02 09:52:34;;;;;;;7.68;3.00;;;12.80;99.90;;;;;;5014122;28;20021;-85
2022/01/02 09:58:30;;;;;;;6.45;2.85;;;12.90;99.90;;;;;;5013935;28;20377;-84
2022/01/02 10:00:56;;;;;;;5.60;3.55;;;12.90;99.90;;;;;;4996122;28;20036;-84
2022/01/02 10:10:12;;;;;;;8.10;3.90;;;12.90;99.90;;;;;;5014228;28;20044;-83
2022/01/02 10:12:38;;;;;;;8.27;3.40;;;12.90;99.90;;;;;;4996116;28;20466;-84
2022/01/02 10:15:13;;;;;;;9.82;4.15;;;12.90;99.90;;;;;;4996216;28;20037;-83
2022/01/02 10:17:52;;;;;;;6.65;3.55;;;12.90;99.90;;;;;;4996178;28;20037;-85
2022/01/02 10:20:21;;;;;;;6.97;3.42;;;12.90;99.90;;;;;;4996445;28;20028;-84
2022/01/02 10:26:21;;;;;;;8.85;3.60;;;13.10;99.90;;;;;;5013535;28;20069;-85
2022/01/02 10:28:47;;;;;;;9.05;3.63;;;13.20;99.90;;;;;;4996628;28;20038;-84
2022/01/02 10:31:15;;;;;;;8.80;4.10;;;13.10;99.90;;;;;;5013828;28;20032;-84
2022/01/02 10:37:04;;;;;;;8.50;3.80;;;13.20;99.90;;;;;;5017521;28;20139;-85
2022/01/02 10:42:54;;;;;;;9.23;3.85;;;13.30;99.90;;;;;;5017259;28;20105;-85
2022/01/02 10:45:44;;;;;;;9.13;3.88;;;13.30;99.90;;;;;;4999832;28;20390;-85
2022/01/02 10:51:42;;;;;;;10.00;4.00;;;13.30;99.90;;;;;;5012184;28;20025;-85
2022/01/02 10:54:08;;;;;;;10.35;4.15;;;13.30;99.90;;;;;;4999711;28;20033;-84
2022/01/02 10:56:34;;;;;;;10.25;4.32;;;13.40;99.90;;;;;;5000679;28;20022;-84
2022/01/02 10:59:17;;;;;;;7.13;3.47;;;13.40;99.90;;;;;;5000908;28;20038;-85
2022/01/02 11:05:47;;;;;;;10.15;3.50;;;13.60;99.90;;;;;;5016557;28;20080;-85
2022/01/02 11:12:12;;;;;;;8.23;3.47;;;13.60;99.90;;;;;;5026858;28;20029;-85
2022/01/02 11:18:15;;;;;;;7.57;3.53;;;13.60;99.90;;;;;;5049922;28;20035;-86
2022/01/02 11:20:42;;;;;;;8.18;3.72;;;13.50;99.90;;;;;;5006721;28;20042;-87
2022/01/02 11:23:50;;;;;;;10.05;4.10;;;13.50;99.90;;;;;;5029395;28;20033;-87
2022/01/02 11:26:42;;;;;;;8.32;3.38;;;13.50;99.90;;;;;;5010890;28;20084;-85
2022/01/02 11:29:07;;;;;;;;;;;13.60;99.90;;;;;;5000433;28;20145;-86
2022/01/02 11:31:36;;;;;;;8.55;3.60;;;13.60;99.90;;;;;;4999230;28;19941;-87
2022/01/02 11:34:24;;;;;;;9.27;3.13;;;13.50;99.90;;;;;;4983377;28;20050;-86
2022/01/02 11:36:51;;;;;;;7.97;3.20;;;13.60;99.90;;;;;;4997200;28;20030;-87
2022/01/02 11:40:00;;;;;;;8.63;3.33;;;13.60;99.90;;;;;;4996220;28;20036;-86
2022/01/02 11:46:27;;;;;;;10.82;3.17;;;13.60;99.90;;;;;;4999576;28;20041;-85
2022/01/02 11:49:08;;;;;;;10.15;3.00;;;13.60;99.90;;;;;;4979800;28;20030;-84
2022/01/02 11:52:01;;;;;;;9.27;3.13;;;13.60;99.90;;;;;;5010316;28;20041;-83
2022/01/02 11:54:33;;;;;;;7.68;3.00;;;13.60;99.90;;;;;;5016278;28;20029;-85
2022/01/02 11:57:02;;;;;;;16.52;4.07;;;13.60;99.90;;;;;;4996109;28;20101;-85
2022/01/02 11:59:45;;;;;;;10.13;3.28;;;13.60;99.90;;;;;;5002535;28;20037;-83
2022/01/02 12:09:01;;;;;;;8.05;3.20;;;13.70;99.90;;;;;;5015920;28;20038;-86
2022/01/02 12:11:49;;;;;;;16.77;3.78;;;13.70;99.90;;;;;;4994954;28;20050;-86
2022/01/02 12:14:19;;;;;;;10.18;3.47;;;13.70;99.90;;;;;;4997954;28;20378;-85
2022/01/02 12:16:57;;;;;;;9.82;4.00;;;13.80;99.90;;;;;;4997668;28;20022;-86
2022/01/02 12:19:23;;;;;;;10.45;4.25;;;13.80;99.90;;;;;;4997145;28;20029;-85
2022/01/02 12:22:12;;;;;;;9.95;3.67;;;13.80;99.90;;;;;;4997528;28;20109;-85
2022/01/02 12:24:38;;;;;;;12.60;5.85;;;13.80;99.90;;;;;;4997883;28;20041;-88
2022/01/02 12:27:13;;;;;;;10.77;3.53;;;13.80;99.90;;;;;;4997855;28;20029;-91
2022/01/02 12:29:39;;;;;;;11.00;3.17;;;13.80;99.90;;;;;;4997814;28;20022;-84
2022/01/02 12:32:06;;;;;;;8.93;3.45;;;13.80;99.90;;;;;;4998077;28;20033;-84
2022/01/02 12:34:33;;;;;;;10.40;3.08;;;13.90;99.90;;;;;;4990067;28;20065;-85
2022/01/02 12:36:59;;;;;;;9.10;3.50;;;13.90;99.90;;;;;;4978171;28;20471;-88
2022/01/02 12:39:37;;;;;;;8.25;3.03;;;13.90;99.90;;;;;;4978766;28;20038;-84
2022/01/02 12:42:11;;;;;;;10.55;3.80;;;13.90;99.90;;;;;;4996002;28;20015;-85
2022/01/02 12:44:37;;;;;;;10.32;2.97;;;13.90;99.90;;;;;;4978287;28;20032;-85
2022/01/02 12:47:05;;;;;;;8.70;3.42;;;13.90;99.90;;;;;;4977370;28;20061;-86
2022/01/02 12:49:36;;;;;;;14.70;6.78;;;13.90;99.90;;;;;;4961727;28;20068;-84
2022/01/02 12:52:05;;;;;;;11.43;4.03;;;13.90;99.90;;;;;;4994915;28;20022;-84
2022/01/02 12:55:11;;;;;;;11.55;3.67;;;13.90;99.90;;;;;;4996636;28;20022;-84
2022/01/02 12:57:37;;;;;;;14.18;5.10;;;13.90;99.90;;;;;;4994466;28;20022;-87
2022/01/02 13:00:04;;;;;;;16.83;9.10;;;13.90;99.90;;;;;;4977863;28;20431;-87
2022/01/02 13:02:30;;;;;;;13.68;5.15;;;13.90;99.90;;;;;;4994208;28;20380;-86
2022/01/02 13:05:01;;;;;;;13.57;3.55;;;14.00;99.90;;;;;;4977276;28;20505;-86
2022/01/02 13:07:48;;;;;;;;;;;14.00;99.90;;;;;;4995400;28;20022;-86
2022/01/02 13:10:15;;;;;;;9.52;3.45;;;14.00;99.90;;;;;;4978224;28;19996;-86
2022/01/02 13:12:44;;;;;;;8.48;2.88;;;14.00;99.90;;;;;;4977439;28;20125;-86
2022/01/02 13:15:11;;;;;;;12.32;3.55;;;13.90;99.90;;;;;;4978088;28;20026;-85
2022/01/02 13:18:29;;;;;;;12.15;2.72;;;14.00;99.90;;;;;;4977748;28;20030;-86
2022/01/02 13:21:33;;;;;;;13.27;3.47;;;14.00;99.90;;;;;;4993594;28;20030;-87
2022/01/02 13:24:28;;;;;;;10.50;3.10;;;14.00;99.90;;;;;;4978165;28;20034;-87
2022/01/02 13:34:26;;;;;;;12.73;2.88;;;14.00;99.90;;;;;;5011429;28;20050;-90
2022/01/02 13:36:55;;;;;;;9.82;2.78;;;14.00;99.90;;;;;;5014380;28;20053;-85
2022/01/02 13:39:41;;;;;;;9.93;3.55;;;14.00;99.90;;;;;;5017055;28;20037;-88
2022/01/02 13:42:08;;;;;;;9.52;2.67;;;14.00;99.90;;;;;;4998815;28;20417;-88
2022/01/02 13:44:50;;;;;;;10.38;2.33;;;14.00;99.90;;;;;;4996582;28;20084;-82
2022/01/02 13:47:17;;;;;;;10.68;2.67;;;14.00;99.90;;;;;;4996551;28;20026;-84
2022/01/02 13:49:56;;;;;;;8.90;2.42;;;14.00;99.90;;;;;;5014132;28;20071;-86
2022/01/02 13:52:23;;;;;;;12.52;2.70;;;14.00;99.90;;;;;;4996386;28;20026;-83
2022/01/02 13:54:49;;;;;;;13.45;2.90;;;14.00;99.90;;;;;;4996321;28;20030;-85
2022/01/02 13:57:16;;;;;;;11.73;2.42;;;14.00;99.90;;;;;;4996157;28;20022;-83
2022/01/02 13:59:51;;;;;;;13.50;2.72;;;14.00;99.90;;;;;;4979893;28;20033;-87
2022/01/02 14:02:17;;;;;;;10.40;2.58;;;14.00;99.90;;;;;;5001144;28;20029;-83
2022/01/02 14:04:57;;;;;;;10.25;2.10;;;14.00;99.90;;;;;;5008544;28;20037;-83
2022/01/02 14:07:28;;;;;;;10.10;2.43;;;14.00;99.90;;;;;;5014314;28;20545;-82
2022/01/02 14:09:54;;;;;;;11.60;2.33;;;13.90;99.90;;;;;;5016481;28;20272;-82
2022/01/02 14:12:33;;;;;;;15.50;2.63;;;13.90;99.90;;;;;;5018554;28;20025;-83
2022/01/02 14:15:26;;;;;;;19.63;3.42;;;13.90;99.90;;;;;;5015814;28;20033;-82
2022/01/02 14:17:53;;;;;;;13.25;2.42;;;13.90;99.90;;;;;;5005895;28;20021;-82
2022/01/02 14:20:23;;;;;;;11.00;2.05;;;13.90;99.90;;;;;;5013268;28;20083;-82
2022/01/02 14:22:49;;;;;;;13.80;3.17;;;13.80;99.90;;;;;;5032842;28;20017;-81
2022/01/02 14:25:17;;;;;;;16.33;2.88;;;13.80;99.90;;;;;;5001055;28;20083;-83
2022/01/02 14:27:49;;;;;;;17.08;3.47;;;13.80;99.90;;;;;;5013785;28;20033;-82
2022/01/02 14:30:15;;;;;;;9.38;2.40;;;13.80;99.90;;;;;;5015847;28;20025;-81
2022/01/02 14:32:41;;;;;;;11.80;2.28;;;13.70;99.90;;;;;;4999408;28;20079;-82
2022/01/02 14:35:09;;;;;;;13.48;3.40;;;13.70;99.90;;;;;;5018166;28;20042;-82
2022/01/02 14:37:34;;;;;;;14.90;2.88;;;13.60;99.90;;;;;;5033528;28;20559;-82
2022/01/02 14:40:00;;;;;;;19.30;3.33;;;13.60;99.90;;;;;;5015838;28;20136;-84
2022/01/02 14:42:26;;;;;;;12.77;2.50;;;13.50;99.90;;;;;;5019105;28;20041;-83
2022/01/02 14:44:53;;;;;;;15.07;2.85;;;13.50;99.90;;;;;;5004173;28;20124;-82
2022/01/02 14:47:19;;;;;;;13.25;2.50;;;13.50;99.90;;;;;;5005840;28;20052;-82
2022/01/02 14:49:45;;;;;;;12.63;2.55;;;13.50;99.90;;;;;;5025050;28;20053;-82
2022/01/02 14:52:11;;;;;;;17.65;2.83;;;13.50;99.90;;;;;;5038843;28;20026;-82
2022/01/02 14:54:36;;;;;;;12.02;3.05;;;13.50;99.90;;;;;;5026796;28;20037;-85
2022/01/02 14:57:03;;;;;;;16.15;2.60;;;13.50;99.90;;;;;;5043648;28;20033;-82
2022/01/02 14:59:31;;;;;;;14.93;2.75;;;13.40;99.90;;;;;;5060672;28;20036;-91
2022/01/02 15:01:58;;;;;;;16.75;3.10;;;13.40;99.90;;;;;;5042228;28;20006;-82
2022/01/02 15:04:24;;;;;;;14.50;3.38;;;13.40;99.90;;;;;;5024428;28;20027;-85
2022/01/02 15:06:51;;;;;;;15.00;2.70;;;13.40;99.90;;;;;;5021391;28;20037;-82
2022/01/02 15:09:17;;;;;;;14.95;2.25;;;13.40;99.90;;;;;;5026706;28;20072;-84
2022/01/02 15:11:43;;;;;;;17.27;3.10;;;13.40;99.90;;;;;;5020529;28;20029;-83
2022/01/02 15:14:09;;;;;;;41.92;5.00;;;13.40;99.90;;;;;;5004403;28;20440;-86
2022/01/02 15:16:35;;;;;;;13.88;2.63;;;13.40;99.90;;;;;;5003041;28;20029;-84
2022/01/02 15:19:01;;;;;;;14.38;3.35;;;13.40;99.90;;;;;;5018265;28;20030;-84
2022/01/02 15:21:27;;;;;;;17.92;2.63;;;13.40;99.90;;;;;;5001312;28;20037;-89
2022/01/02 15:23:54;;;;;;;16.10;2.80;;;13.40;99.90;;;;;;5018983;28;20084;-87
2022/01/02 15:26:20;;;;;;;16.55;2.55;;;13.40;99.90;;;;;;5019861;28;20036;-87
2022/01/02 15:28:47;;;;;;;13.35;3.22;;;13.40;99.90;;;;;;5002840;28;20497;-83
2022/01/02 15:31:15;;;;;;;15.48;3.08;;;13.40;99.90;;;;;;5035866;28;20029;-82
2022/01/02 15:33:41;;;;;;;16.38;3.05;;;13.40;99.90;;;;;;5035506;28;20072;-83
2022/01/02 15:36:07;;;;;;;17.92;3.08;;;13.40;99.90;;;;;;5035365;28;20501;-83
2022/01/02 15:38:33;;;;;;;17.38;3.45;;;13.40;99.90;;;;;;5001491;28;20029;-83
2022/01/02 15:41:00;;;;;;;18.92;3.70;;;13.30;99.90;;;;;;5001767;28;20034;-82
2022/01/02 15:43:26;;;;;;;16.58;3.33;;;13.40;99.90;;;;;;5017990;28;20112;-81
2022/01/02 15:45:52;;;;;;;15.98;2.97;;;13.40;99.90;;;;;;5017037;28;20493;-85
2022/01/02 15:48:17;;;;;;;15.55;3.53;;;13.40;99.90;;;;;;5016403;28;20021;-83
2022/01/02 15:50:43;;;;;;;15.43;4.18;;;13.30;99.90;;;;;;5014830;28;20402;-85
2022/01/02 15:53:08;;;;;;;20.05;3.70;;;13.40;99.90;;;;;;5014719;28;20466;-83
2022/01/02 15:55:35;;;;;;;11.80;3.00;;;13.30;99.90;;;;;;5013964;28;20425;-83
2022/01/02 15:58:01;;;;;;;17.90;3.30;;;13.30;99.90;;;;;;4998032;28;20033;-82
2022/01/02 16:00:27;;;;;;;16.65;5.15;;;13.30;99.90;;;;;;5015900;28;20470;-84
2022/01/02 16:02:53;;;;;;;15.30;4.22;;;13.30;99.90;;;;;;5001377;28;20040;-86
2022/01/02 16:05:19;;;;;;;25.20;6.82;;;13.30;99.90;;;;;;5001198;28;20040;-85
2022/01/02 16:07:57;;;;;;;;;;;;;;;;;;;;;
2022/01/02 16:10:26;;;;;;;23.98;6.38;;;13.20;99.90;;;;;;5019058;28;20385;-87
2022/01/02 16:12:54;;;;;;;18.23;5.18;;;13.20;99.90;;;;;;5016916;28;20491;-85
2022/01/02 16:15:22;;;;;;;21.35;13.75;;;13.20;99.90;;;;;;5017117;28;20466;-87
2022/01/02 16:17:55;;;;;;;19.15;6.72;;;13.20;99.90;;;;;;5017377;28;20049;-85
2022/01/02 16:20:23;;;;;;;22.30;6.18;;;13.20;99.90;;;;;;5017184;28;20461;-85
2022/01/02 16:22:52;;;;;;;18.00;4.97;;;13.20;99.90;;;;;;5001696;28;20036;-84
2022/01/02 16:25:18;;;;;;;11.25;3.10;;;13.10;99.90;;;;;;5035170;28;20018;-87
2022/01/02 16:27:43;;;;;;;18.20;3.83;;;13.20;99.90;;;;;;5016610;28;20493;-84
2022/01/02 16:30:15;;;;;;;15.48;4.00;;;13.10;99.90;;;;;;4991564;28;20073;-87
2022/01/02 16:32:41;;;;;;;20.60;5.22;;;13.10;99.90;;;;;;5028022;28;20488;-84
2022/01/02 16:35:07;;;;;;;16.35;4.70;;;13.10;99.90;;;;;;5008540;28;20073;-87
2022/01/02 16:37:38;;;;;;;18.23;4.05;;;13.10;99.90;;;;;;4997574;28;20056;-86
2022/01/02 16:40:06;;;;;;;20.08;5.55;;;13.10;99.90;;;;;;4982777;28;20025;-84
2022/01/02 16:42:31;;;;;;;11.02;3.30;;;13.10;99.90;;;;;;4997809;28;20069;-86
2022/01/02 16:45:00;;;;;;;20.50;3.60;;;13.10;99.90;;;;;;4981944;28;20607;-85
2022/01/02 16:47:29;;;;;;;15.93;4.68;;;13.10;99.90;;;;;;4988307;28;20132;-87
2022/01/02 16:49:58;;;;;;;17.85;4.20;;;13.10;99.90;;;;;;4976566;28;20037;-87
2022/01/02 16:52:26;;;;;;;18.70;4.07;;;13.10;99.90;;;;;;4979632;28;20029;-86
2022/01/02 16:54:52;;;;;;;13.82;3.33;;;13.20;99.90;;;;;;5013856;28;20045;-85
2022/01/02 16:57:18;;;;;;;17.20;4.15;;;13.10;99.90;;;;;;4979444;28;20386;-87
2022/01/02 16:59:46;;;;;;;20.52;4.05;;;13.10;99.90;;;;;;4995108;28;20014;-86
2022/01/02 17:02:14;;;;;;;18.13;3.58;;;13.10;99.90;;;;;;4996024;28;20389;-86
2022/01/02 17:04:40;;;;;;;21.80;4.22;;;13.10;99.90;;;;;;4996338;28;20084;-89
2022/01/02 17:07:08;;;;;;;16.90;3.35;;;13.10;99.90;;;;;;4980039;28;20033;-85
2022/01/02 17:09:34;;;;;;;18.60;3.50;;;13.10;99.90;;;;;;4980641;28;20022;-85
2022/01/02 17:12:03;;;;;;;21.60;3.70;;;13.10;99.90;;;;;;4996322;28;20369;-85
2022/01/02 17:14:29;;;;;;;20.13;3.90;;;13.10;99.90;;;;;;4996443;28;20465;-88
2022/01/02 17:16:56;;;;;;;18.55;3.63;;;13.10;99.90;;;;;;4996237;28;20022;-86
2022/01/02 17:19:22;;;;;;;13.30;3.30;;;13.10;99.90;;;;;;4996169;28;20014;-86
2022/01/02 17:21:47;;;;;;;19.58;3.72;;;13.00;99.90;;;;;;4996397;28;20022;-85
2022/01/02 17:24:13;;;;;;;18.50;4.00;;;13.00;99.90;;;;;;4980182;28;20060;-84
2022/01/02 17:26:39;;;;;;;16.85;3.90;;;13.00;99.90;;;;;;4980070;28;20394;-85
2022/01/02 17:29:04;;;;;;;17.95;3.90;;;13.00;99.90;;;;;;4963821;28;20088;-85
2022/01/02 17:31:30;;;;;;;20.92;4.32;;;12.90;99.90;;;;;;4964672;28;20026;-84
2022/01/02 17:33:56;;;;;;;22.50;3.90;;;12.90;99.90;;;;;;5013949;28;20022;-86
2022/01/02 17:36:23;;;;;;;20.45;3.97;;;12.90;99.90;;;;;;4997912;28;20052;-87
2022/01/02 17:38:59;;;;;;;;;;;;;;;;;;;;;
2022/01/02 17:41:28;;;;;;;23.95;4.13;;;12.80;99.90;;;;;;5030883;28;20018;-88
2022/01/02 17:43:56;;;;;;;26.10;4.60;;;12.80;99.90;;;;;;5032785;28;20018;-87
2022/01/02 17:46:24;;;;;;;17.10;4.47;;;12.80;99.90;;;;;;5031060;28;20461;-86
2022/01/02 17:48:50;;;;;;;16.42;3.28;;;12.80;99.90;;;;;;4995788;28;20034;-84
2022/01/02 17:51:18;;;;;;;20.23;4.07;;;12.80;99.90;;;;;;5013621;28;20026;-85
2022/01/02 17:53:43;;;;;;;23.17;4.47;;;12.80;99.90;;;;;;4995536;28;20037;-86
2022/01/02 17:56:09;;;;;;;19.95;3.80;;;12.70;99.90;;;;;;5012367;28;20034;-85
2022/01/02 17:58:35;;;;;;;18.90;4.22;;;12.70;99.90;;;;;;5013610;28;20057;-85
2022/01/02 18:01:08;;;;;;;17.33;4.28;;;12.70;99.90;;;;;;4996218;28;20038;-86
2022/01/02 18:03:33;;;;;;;21.40;3.90;;;12.70;99.90;;;;;;4996675;28;20042;-87
2022/01/02 18:06:19;;;;;;;18.10;3.53;;;12.70;99.90;;;;;;4998233;28;20037;-86
2022/01/02 18:08:48;;;;;;;13.93;4.10;;;12.70;99.90;;;;;;5013874;28;20034;-87
2022/01/02 18:11:14;;;;;;;19.58;4.20;;;12.70;99.90;;;;;;4997143;28;20389;-87
2022/01/02 18:13:40;;;;;;;14.52;3.47;;;12.70;99.90;;;;;;5014254;28;20025;-87
2022/01/02 18:19:14;;;;;;;;;;;;;;;;;;;;;
2022/01/02 18:24:33;;;;;;;15.30;2.85;;;12.70;99.90;;;;;;5016494;28;20095;-87
2022/01/02 18:27:01;;;;;;;18.58;4.15;;;12.70;99.90;;;;;;5006976;28;20037;-85
2022/01/02 18:29:39;;;;;;;14.95;2.53;;;12.80;99.90;;;;;;4999904;28;20120;-86
2022/01/02 18:32:09;;;;;;;11.80;2.65;;;12.80;99.90;;;;;;5017583;28;20018;-85
2022/01/02 18:34:38;;;;;;;9.40;2.50;;;12.80;99.90;;;;;;5052038;28;20093;-88
2022/01/02 18:37:13;;;;;;;10.38;2.58;;;12.80;99.90;;;;;;5040316;28;20030;-92
2022/01/02 18:39:39;;;;;;;12.02;2.78;;;12.90;99.90;;;;;;5040108;28;20014;-90
2022/01/02 18:42:05;;;;;;;8.18;2.10;;;12.90;99.90;;;;;;5039598;28;20029;-87
2022/01/02 18:44:37;;;;;;;7.00;1.90;;;12.90;99.90;;;;;;5022552;28;20025;-94
2022/01/02 18:47:07;;;;;;;9.85;1.85;;;12.90;99.90;;;;;;5032605;28;20029;-87
2022/01/02 18:49:35;;;;;;;9.88;2.33;;;12.90;99.90;;;;;;5037587;28;20065;-86
2022/01/02 18:52:20;;;;;;;11.65;2.28;;;12.90;99.90;;;;;;5042040;28;20485;-87
2022/01/02 18:54:48;;;;;;;11.13;2.45;;;12.90;99.90;;;;;;5015396;28;20029;-85
2022/01/02 18:57:23;;;;;;;10.60;2.40;;;12.90;99.90;;;;;;5020527;28;20053;-85
2022/01/02 19:00:41;;;;;;;11.52;2.67;;;12.90;99.90;;;;;;5019160;28;20405;-85
2022/01/02 19:03:09;;;;;;;8.25;2.20;;;12.90;99.90;;;;;;5020661;28;20049;-85
2022/01/02 19:05:38;;;;;;;9.43;2.10;;;13.00;99.90;;;;;;5018236;28;20025;-88
2022/01/02 19:08:07;;;;;;;13.70;3.58;;;12.90;99.90;;;;;;5016438;28;20453;-86
2022/01/02 19:10:41;;;;;;;11.95;2.97;;;12.90;99.90;;;;;;5017825;28;20060;-86
2022/01/02 19:13:08;;;;;;;11.95;2.67;;;12.90;99.90;;;;;;5020756;28;20053;-86
2022/01/02 19:15:36;;;;;;;12.05;2.70;;;12.90;99.90;;;;;;5015571;28;20124;-86
2022/01/02 19:18:02;;;;;;;12.23;2.83;;;12.90;99.90;;;;;;5012347;28;20041;-85
2022/01/02 19:20:28;;;;;;;13.20;2.83;;;12.80;99.90;;;;;;5008647;28;20112;-85
2022/01/02 19:22:54;;;;;;;13.00;2.60;;;12.80;99.90;;;;;;5017854;28;20424;-83
2022/01/02 19:25:22;;;;;;;10.60;2.42;;;12.70;99.90;;;;;;5012980;28;20038;-84
2022/01/02 19:27:53;;;;;;;12.55;3.05;;;12.70;99.90;;;;;;5016521;28;20026;-85
2022/01/02 19:30:21;;;;;;;;;;;12.60;99.90;;;;;;5001488;28;20021;-85
2022/01/02 19:32:51;;;;;;;9.82;2.58;;;12.60;99.90;;;;;;5034658;28;19916;-87
2022/01/02 19:35:19;;;;;;;10.52;2.60;;;12.50;99.90;;;;;;4995494;28;20058;-87
2022/01/02 19:37:45;;;;;;;11.35;2.50;;;12.50;99.90;;;;;;4978630;28;20111;-84
2022/01/02 19:40:12;;;;;;;12.90;3.50;;;12.50;99.90;;;;;;4981607;28;20475;-85
2022/01/02 19:42:38;;;;;;;11.13;2.60;;;12.50;99.90;;;;;;4997496;28;20470;-86
2022/01/02 19:45:09;;;;;;;6.75;2.30;;;12.40;99.90;;;;;;4996783;28;20030;-85
2022/01/02 19:47:35;;;;;;;12.38;3.17;;;12.40;99.90;;;;;;4999268;28;20030;-85
2022/01/02 19:50:01;;;;;;;10.73;2.40;;;12.40;99.90;;;;;;5003718;28;20501;-86
2022/01/02 19:52:27;;;;;;;8.73;2.15;;;12.40;99.90;;;;;;5014246;28;20033;-86
2022/01/02 19:54:53;;;;;;;10.23;2.60;;;12.40;99.90;;;;;;4998253;28;20030;-85